Time;durP1;ratioP1;P1;durP2;ratioP2;P2;SDS_P1;SDS_P2;PMS_P1;PMS_P2;Temp;Humidity;BMP_temperature;BMP_pressure;BME280_temperature;BME280_humidity;BME280_pressure;Samples;Min_cycle;Max_cycle;Signal;HPM_P1;HPM_P2
2023/03/09 00:01:26;;;;;;;5.22;1.48;;;;;;;15.52;70.98;93290.44;5078465;28;20131;-88
2023/03/09 00:03:52;;;;;;;8.40;1.42;;;;;;;16.04;65.66;93288.38;5078173;28;20119;-89
2023/03/09 00:06:18;;;;;;;5.97;1.50;;;;;;;15.79;66.84;93309.44;5078183;28;20502;-88
2023/03/09 00:08:46;;;;;;;4.00;1.42;;;;;;;16.04;66.26;93307.66;5077933;28;20040;-89
2023/03/09 00:11:12;;;;;;;10.30;2.00;;;;;;;16.48;64.62;93319.59;5077852;28;20029;-88
2023/03/09 00:13:38;;;;;;;9.10;1.95;;;;;;;16.44;63.40;93308.16;5077986;28;20032;-89
2023/03/09 00:16:12;;;;;;;8.98;1.73;;;;;;;16.09;66.65;93314.59;5076693;28;20033;-89
2023/03/09 00:18:37;;;;;;;12.43;2.03;;;;;;;15.32;70.54;93290.13;5077551;28;20388;-88
2023/03/09 00:21:03;;;;;;;9.13;1.65;;;;;;;16.21;66.55;93301.41;5077844;28;20032;-88
2023/03/09 00:23:28;;;;;;;9.23;1.80;;;;;;;16.61;63.08;93296.56;5077811;28;20024;-89
2023/03/09 00:25:54;;;;;;;6.88;2.00;;;;;;;16.88;61.76;93273.97;5077430;28;20111;-88
2023/03/09 00:28:19;;;;;;;6.57;1.73;;;;;;;16.33;63.27;93282.16;5077854;28;20028;-89
2023/03/09 00:30:45;;;;;;;13.63;1.75;;;;;;;16.33;62.65;93276.88;5077931;28;20475;-89
2023/03/09 00:33:10;;;;;;;11.02;1.42;;;;;;;16.54;62.41;93291.81;5061203;28;20029;-89
2023/03/09 00:35:36;;;;;;;4.60;1.13;;;;;;;17.07;60.04;93289.28;5077864;28;20032;-89
2023/03/09 00:38:02;;;;;;;2.85;1.40;;;;;;;17.51;58.52;93267.38;5061016;28;20467;-89
2023/03/09 00:40:28;;;;;;;7.10;1.58;;;;;;;17.08;58.79;93290.81;5077378;28;20341;-89
2023/03/09 00:42:53;;;;;;;12.23;1.60;;;;;;;16.70;60.27;93284.00;5060983;28;20028;-89
2023/03/09 00:45:21;;;;;;;6.82;1.90;;;;;;;17.62;57.70;93265.03;5077335;28;20441;-89
2023/03/09 00:47:47;;;;;;;10.55;1.63;;;;;;;17.59;56.94;93257.75;5077251;28;20119;-89
2023/03/09 00:50:12;;;;;;;9.63;1.50;;;;;;;15.71;65.58;93268.03;5060717;28;20427;-89
2023/03/09 00:52:37;;;;;;;7.40;1.92;;;;;;;16.07;63.51;93250.75;5077770;28;20025;-89
2023/03/09 00:55:03;;;;;;;6.70;1.55;;;;;;;17.34;59.31;93239.31;5077231;28;20131;-89
2023/03/09 00:57:36;;;;;;;10.32;1.83;;;;;;;17.10;60.11;93253.41;5060654;28;20024;-89
2023/03/09 01:00:04;;;;;;;7.63;1.88;;;;;;;17.18;59.24;93247.22;5078069;28;20036;-88
2023/03/09 01:02:29;;;;;;;7.30;1.75;;;;;;;17.30;58.67;93237.72;5060756;28;20024;-88
2023/03/09 01:04:55;;;;;;;7.90;1.45;;;;;;;17.57;57.61;93232.72;5077160;28;20095;-89
2023/03/09 01:07:22;;;;;;;12.23;1.92;;;;;;;17.86;57.01;93239.50;5077047;28;20086;-88
2023/03/09 01:09:48;;;;;;;12.63;1.92;;;;;;;16.80;58.96;93243.09;5060487;28;20028;-89
2023/03/09 01:12:13;;;;;;;9.95;1.80;;;;;;;16.94;58.93;93238.22;5057934;28;20034;-88
2023/03/09 01:14:39;;;;;;;8.02;1.98;;;;;;;17.27;57.87;93244.44;5056733;28;20028;-88
2023/03/09 01:17:04;;;;;;;9.93;1.50;;;;;;;17.85;56.51;93235.31;5056532;28;20021;-89
2023/03/09 01:19:30;;;;;;;11.40;1.75;;;;;;;16.74;59.29;93245.22;5056858;28;20315;-89
2023/03/09 01:21:56;;;;;;;7.30;1.63;;;;;;;17.63;57.28;93244.63;5057933;28;20021;-88
2023/03/09 01:24:22;;;;;;;12.27;2.33;;;;;;;17.47;57.22;93239.28;5056674;28;20076;-88
2023/03/09 01:26:47;;;;;;;6.28;1.73;;;;;;;17.53;57.56;93237.94;5056265;28;20136;-88
2023/03/09 01:29:12;;;;;;;6.72;1.52;;;;;;;17.52;56.89;93234.50;5056423;28;20082;-89
2023/03/09 01:31:38;;;;;;;8.02;1.98;;;;;;;16.98;59.62;93238.34;5067365;28;20071;-88
2023/03/09 01:34:03;;;;;;;8.45;1.98;;;;;;;17.62;57.45;93246.47;5063229;28;20040;-89
2023/03/09 01:36:29;;;;;;;6.93;1.42;;;;;;;17.53;56.99;93256.47;5056359;28;20025;-88
2023/03/09 01:38:54;;;;;;;6.53;1.80;;;;;;;17.37;57.91;93256.41;5039818;28;20032;-89
2023/03/09 01:41:22;;;;;;;7.03;1.60;;;;;;;16.98;59.63;93259.50;5056356;28;20028;-88
2023/03/09 01:43:49;;;;;;;11.57;1.75;;;;;;;17.80;57.16;93262.06;5056305;28;20048;-88
2023/03/09 01:46:28;;;;;;;6.60;1.38;;;;;;;17.97;56.34;93278.75;5056299;28;20024;-88
2023/03/09 01:49:24;;;;;;;11.85;1.65;;;;;;;17.84;56.94;93278.81;5039686;28;20094;-88
2023/03/09 01:52:11;;;;;;;2.30;1.25;;;;;;;16.66;59.75;93280.50;5039767;28;20029;-89
2023/03/09 01:54:40;;;;;;;13.32;1.83;;;;;;;16.58;62.06;93268.94;5039722;28;20021;-89
2023/03/09 01:57:32;;;;;;;5.85;1.33;;;;;;;17.78;57.42;93267.72;5056996;28;20021;-88
2023/03/09 02:00:05;;;;;;;4.75;1.30;;;;;;;17.31;58.11;93273.66;5056976;28;20035;-89
2023/03/09 02:02:33;;;;;;;4.43;1.33;;;;;;;16.48;61.12;93272.78;5057220;28;20025;-89
2023/03/09 02:05:03;;;;;;;7.22;1.50;;;;;;;16.65;61.22;93255.91;5055955;28;20021;-88
2023/03/09 02:07:29;;;;;;;9.35;1.60;;;;;;;16.66;61.14;93262.75;5055769;28;20424;-89
2023/03/09 02:10:02;;;;;;;7.55;1.52;;;;;;;16.70;60.55;93252.28;5055738;28;20107;-88
2023/03/09 02:12:28;;;;;;;5.43;1.00;;;;;;;16.60;61.72;93277.31;5055868;28;20031;-89
2023/03/09 02:14:54;;;;;;;12.80;1.67;;;;;;;16.24;62.95;93274.31;5055711;28;20029;-89
2023/03/09 02:17:19;;;;;;;5.68;1.40;;;;;;;16.88;60.42;93265.25;5055759;28;20071;-88
2023/03/09 02:20:06;;;;;;;13.60;1.65;;;;;;;17.31;60.15;93274.41;5055668;28;20446;-88
2023/03/09 02:22:36;;;;;;;7.13;1.75;;;;;;;16.96;60.78;93273.03;5055577;28;20684;-89
2023/03/09 02:25:29;;;;;;;9.70;1.60;;;;;;;17.92;57.60;93285.06;5055653;28;20036;-88
2023/03/09 02:27:56;;;;;;;9.05;1.50;;;;;;;17.44;59.75;93287.63;5055798;28;20029;-89
2023/03/09 02:30:24;;;;;;;8.65;1.70;;;;;;;16.73;61.83;93278.03;5055755;28;20513;-89
2023/03/09 02:32:49;;;;;;;8.98;1.65;;;;;;;17.65;58.21;93282.13;5055606;28;20028;-89
2023/03/09 02:35:15;;;;;;;5.75;1.67;;;;;;;17.48;57.57;93280.53;5055552;28;20075;-88
2023/03/09 02:37:41;;;;;;;5.97;1.48;;;;;;;18.00;57.09;93286.78;5055482;28;20021;-89
2023/03/09 02:40:15;;;;;;;7.07;1.73;;;;;;;17.52;58.17;93276.13;5058959;28;20060;-88
2023/03/09 02:42:42;;;;;;;4.22;1.40;;;;;;;17.75;57.19;93270.25;5060591;28;20036;-89
2023/03/09 02:45:09;;;;;;;11.05;1.67;;;;;;;16.84;60.06;93274.97;5043094;28;20131;-87
2023/03/09 02:47:36;;;;;;;6.18;1.40;;;;;;;16.23;63.37;93264.84;5059585;28;20033;-88
2023/03/09 02:50:01;;;;;;;5.55;1.50;;;;;;;17.00;61.38;93262.59;5059448;28;20025;-88
2023/03/09 02:52:27;;;;;;;7.22;1.65;;;;;;;17.24;59.58;93269.69;5059745;28;20086;-89
2023/03/09 02:54:52;;;;;;;5.00;1.50;;;;;;;16.35;62.94;93252.72;5059646;28;20127;-89
2023/03/09 02:57:17;;;;;;;5.60;1.63;;;;;;;16.75;63.04;93267.16;5059392;28;20415;-89
2023/03/09 02:59:43;;;;;;;5.57;1.58;;;;;;;17.16;61.14;93269.84;5059424;28;20358;-89
2023/03/09 03:02:09;;;;;;;7.18;1.15;;;;;;;17.64;58.16;93273.38;5060446;28;20028;-89
2023/03/09 03:04:34;;;;;;;7.80;1.80;;;;;;;16.72;62.81;93262.53;5060468;28;20025;-88
2023/03/09 03:07:13;;;;;;;9.23;1.70;;;;;;;17.85;58.74;93261.81;5059197;28;20445;-89
2023/03/09 03:09:39;;;;;;;3.58;1.60;;;;;;;17.02;62.35;93265.69;5059149;28;20021;-89
2023/03/09 03:12:05;;;;;;;6.78;1.20;;;;;;;17.25;60.97;93270.47;5059190;28;20074;-89
2023/03/09 03:14:30;;;;;;;6.55;1.27;;;;;;;15.94;68.32;93263.16;5059093;28;20036;-88
2023/03/09 03:16:56;;;;;;;4.90;0.95;;;;;;;15.91;68.99;93253.25;5059026;28;20025;-88
2023/03/09 03:19:22;;;;;;;5.53;1.30;;;;;;;16.64;67.20;93259.66;5042208;28;20025;-89
2023/03/09 03:21:48;;;;;;;4.38;1.23;;;;;;;16.08;68.94;93236.44;5059032;28;20346;-88
2023/03/09 03:24:14;;;;;;;3.88;1.20;;;;;;;16.20;69.79;93262.84;5059129;28;20028;-88
2023/03/09 03:26:40;;;;;;;2.60;1.23;;;;;;;16.53;67.68;93275.22;5058801;28;20041;-89
2023/03/09 03:29:05;;;;;;;5.43;1.00;;;;;;;16.94;66.80;93267.31;5058819;28;20036;-88
2023/03/09 03:31:32;;;;;;;2.75;0.95;;;;;;;16.62;67.46;93255.78;5042081;28;20106;-88
2023/03/09 03:33:57;;;;;;;3.92;1.00;;;;;;;16.61;68.63;93257.69;5058787;28;20029;-88
2023/03/09 03:36:23;;;;;;;3.33;1.30;;;;;;;16.91;66.44;93273.28;5058697;28;20029;-89
2023/03/09 03:38:48;;;;;;;7.40;1.17;;;;;;;18.01;61.86;93258.41;5041886;28;20029;-89
2023/03/09 03:41:14;;;;;;;3.80;1.13;;;;;;;16.64;67.82;93248.28;5059822;28;20035;-88
2023/03/09 03:43:43;;;;;;;3.90;0.80;;;;;;;16.59;68.53;93243.25;5042178;28;20035;-89
2023/03/09 03:46:09;;;;;;;2.47;0.88;;;;;;;16.31;71.63;93230.72;5058738;28;20036;-88
2023/03/09 03:48:34;;;;;;;2.35;0.90;;;;;;;16.26;69.39;93207.91;5070564;28;20029;-89
2023/03/09 03:51:00;;;;;;;4.03;1.02;;;;;;;15.86;71.55;93195.34;5059827;28;20032;-88
2023/03/09 03:53:26;;;;;;;3.53;1.10;;;;;;;16.56;67.72;93215.59;5067323;28;20440;-89
2023/03/09 03:55:51;;;;;;;1.55;0.70;;;;;;;17.43;63.04;93180.16;5048987;28;20085;-89
2023/03/09 03:58:17;;;;;;;2.25;1.00;;;;;;;17.37;62.70;93191.03;5051011;28;20020;-89
2023/03/09 04:00:42;;;;;;;3.40;1.30;;;;;;;16.51;65.74;93187.53;5061849;28;20422;-88
2023/03/09 04:03:07;;;;;;;6.28;1.48;;;;;;;16.69;63.75;93197.84;5061823;28;20031;-89
2023/03/09 04:05:33;;;;;;;2.60;0.82;;;;;;;17.36;61.46;93180.75;5061786;28;20025;-89
2023/03/09 04:07:58;;;;;;;6.07;1.55;;;;;;;16.82;63.39;93164.97;5079267;28;20040;-89
2023/03/09 04:10:24;;;;;;;4.38;0.80;;;;;;;16.83;63.11;93168.38;5077995;28;20025;-89
2023/03/09 04:12:50;;;;;;;4.18;1.20;;;;;;;16.43;63.82;93169.91;5079260;28;20032;-88
2023/03/09 04:15:16;;;;;;;3.15;0.85;;;;;;;15.77;67.73;93179.59;5078227;28;20051;-88
2023/03/09 04:17:41;;;;;;;3.65;1.00;;;;;;;16.97;62.46;93160.06;5077663;28;20121;-88
2023/03/09 04:20:07;;;;;;;4.03;0.90;;;;;;;17.41;60.51;93153.28;5077823;28;20029;-89
2023/03/09 04:22:33;;;;;;;1.60;0.80;;;;;;;16.80;62.93;93161.91;5077858;28;20105;-88
2023/03/09 04:24:58;;;;;;;4.22;1.05;;;;;;;17.22;61.94;93162.66;5077855;28;20093;-89
2023/03/09 04:27:24;;;;;;;2.70;1.05;;;;;;;16.75;62.83;93167.41;5061257;28;20078;-89
2023/03/09 04:29:49;;;;;;;3.42;1.10;;;;;;;16.34;66.36;93167.38;5061119;28;20446;-88
2023/03/09 04:32:15;;;;;;;1.98;0.60;;;;;;;16.47;65.05;93162.84;5061254;28;20082;-89
2023/03/09 04:34:40;;;;;;;3.72;0.60;;;;;;;16.82;63.82;93149.09;5077674;28;20028;-88
2023/03/09 04:37:06;;;;;;;2.80;0.88;;;;;;;17.61;59.73;93128.41;5061121;28;20434;-89
2023/03/09 04:39:31;;;;;;;2.25;0.93;;;;;;;16.98;61.75;93139.66;5077372;28;20025;-89
2023/03/09 04:41:56;;;;;;;1.02;0.57;;;;;;;16.75;62.43;93133.03;5077485;28;20060;-89
2023/03/09 04:44:22;;;;;;;2.92;1.02;;;;;;;16.62;63.11;93140.25;5077477;28;20123;-89
2023/03/09 04:46:47;;;;;;;1.10;0.60;;;;;;;16.40;65.18;93150.19;5077343;28;20029;-88
2023/03/09 04:49:13;;;;;;;4.15;0.75;;;;;;;16.83;62.51;93147.22;5078319;28;20035;-89
2023/03/09 04:51:38;;;;;;;3.65;0.45;;;;;;;17.07;61.98;93145.59;5045779;28;20028;-89
2023/03/09 04:54:04;;;;;;;3.03;0.60;;;;;;;16.93;62.19;93148.63;5060601;28;20028;-89
2023/03/09 04:56:29;;;;;;;3.25;0.50;;;;;;;16.51;63.00;93155.81;5067387;28;20427;-88
2023/03/09 04:58:55;;;;;;;2.40;0.52;;;;;;;17.71;59.02;93148.31;5066426;28;20029;-88
2023/03/09 05:01:21;;;;;;;0.75;0.30;;;;;;;17.69;58.54;93145.25;5057272;28;20112;-89
2023/03/09 05:03:46;;;;;;;4.72;0.90;;;;;;;17.90;57.45;93141.56;5056921;28;20029;-88
2023/03/09 05:06:20;;;;;;;1.20;0.38;;;;;;;18.19;57.01;93144.91;5056991;28;20086;-88
2023/03/09 05:08:46;;;;;;;1.58;0.52;;;;;;;17.85;57.21;93152.41;5043559;28;20075;-88
2023/03/09 05:11:11;;;;;;;5.50;0.45;;;;;;;17.28;59.81;93174.50;5076850;28;20020;-89
2023/03/09 05:13:37;;;;;;;2.67;0.43;;;;;;;16.90;61.15;93150.06;5076755;28;20446;-88
2023/03/09 05:16:07;;;;;;;5.85;0.60;;;;;;;17.65;61.84;93174.31;5076697;28;20032;-88
2023/03/09 05:18:34;;;;;;;0.47;0.40;;;;;;;17.47;61.64;93178.38;5060135;28;20461;-89
2023/03/09 05:21:04;;;;;;;0.80;0.50;;;;;;;17.88;60.38;93168.41;5076658;28;20035;-90
2023/03/09 05:23:29;;;;;;;3.05;1.00;;;;;;;16.88;62.60;93170.00;5077147;28;20074;-89
2023/03/09 05:26:01;;;;;;;2.50;0.50;;;;;;;17.80;59.76;93170.13;5076625;28;20040;-90
2023/03/09 05:28:27;;;;;;;3.15;0.75;;;;;;;17.19;62.50;93185.25;5076383;28;20135;-89
2023/03/09 05:30:53;;;;;;;0.85;0.50;;;;;;;17.87;59.43;93189.97;5076552;28;20058;-90
2023/03/09 05:33:19;;;;;;;1.88;0.70;;;;;;;17.70;59.22;93186.50;5076152;28;20071;-90
2023/03/09 05:35:44;;;;;;;2.25;0.70;;;;;;;17.08;61.65;93182.31;5077216;28;20051;-90
2023/03/09 05:38:10;;;;;;;2.22;0.60;;;;;;;16.19;66.00;93202.44;5059330;28;20066;-90
2023/03/09 05:40:35;;;;;;;1.95;0.50;;;;;;;17.24;61.21;93195.59;5076976;28;20028;-88
2023/03/09 05:43:01;;;;;;;6.93;0.60;;;;;;;17.61;59.97;93196.53;5072781;28;20472;-88
2023/03/09 05:45:26;;;;;;;2.38;0.70;;;;;;;17.15;62.71;93199.50;5076002;28;20036;-88
2023/03/09 05:47:52;;;;;;;1.13;0.57;;;;;;;17.11;61.51;93199.38;5076120;28;20035;-89
2023/03/09 05:50:17;;;;;;;3.50;0.70;;;;;;;17.92;59.13;93205.59;5076026;28;20345;-88
2023/03/09 05:52:43;;;;;;;2.80;0.75;;;;;;;17.60;60.62;93219.56;5076160;28;20033;-89
2023/03/09 05:55:09;;;;;;;0.75;0.40;;;;;;;17.46;60.24;93216.56;5077300;28;20031;-88
2023/03/09 05:57:35;;;;;;;2.97;0.70;;;;;;;17.19;61.93;93218.88;5076114;28;20025;-88
2023/03/09 06:00:01;;;;;;;3.70;0.93;;;;;;;18.05;58.87;93212.38;5059360;28;20064;-88
2023/03/09 06:02:26;;;;;;;0.85;0.60;;;;;;;18.18;58.06;93212.28;5075959;28;20085;-88
2023/03/09 06:04:52;;;;;;;3.80;0.82;;;;;;;18.00;58.69;93214.47;5077066;28;20102;-88
2023/03/09 06:07:17;;;;;;;1.73;0.88;;;;;;;17.65;60.01;93215.91;5075851;28;20138;-88
2023/03/09 06:09:44;;;;;;;3.15;0.70;;;;;;;17.29;61.03;93217.66;5075812;28;20039;-88
2023/03/09 06:12:10;;;;;;;3.30;0.85;;;;;;;16.98;63.83;93208.44;5076075;28;20392;-88
2023/03/09 06:14:35;;;;;;;2.60;0.50;;;;;;;17.62;60.53;93219.25;5075814;28;20119;-89
2023/03/09 06:17:01;;;;;;;3.17;0.88;;;;;;;17.86;60.19;93214.88;5075813;28;20029;-90
2023/03/09 06:19:26;;;;;;;3.97;0.93;;;;;;;16.84;63.01;93216.75;5076550;28;20033;-90
2023/03/09 06:21:52;;;;;;;1.73;0.50;;;;;;;16.40;65.47;93229.50;5076731;28;20338;-90
2023/03/09 06:24:17;;;;;;;3.20;0.90;;;;;;;17.30;61.45;93235.06;5075379;28;20033;-88
2023/03/09 06:26:43;;;;;;;4.78;0.80;;;;;;;17.06;62.23;93250.66;5075531;28;20308;-89
2023/03/09 06:29:08;;;;;;;3.33;1.00;;;;;;;16.82;62.96;93249.63;5075597;28;20380;-89
2023/03/09 06:31:34;;;;;;;2.28;0.75;;;;;;;18.25;57.51;93246.13;5075656;28;20107;-89
2023/03/09 06:33:59;;;;;;;3.90;0.90;;;;;;;17.15;58.76;93213.50;5075631;28;20081;-89
2023/03/09 06:36:25;;;;;;;3.78;0.70;;;;;;;17.73;57.62;93232.75;5075640;28;20386;-89
2023/03/09 06:38:51;;;;;;;2.90;0.90;;;;;;;17.23;58.56;93225.81;5075240;28;20067;-89
2023/03/09 06:41:16;;;;;;;7.47;1.17;;;;;;;17.61;57.83;93228.28;5075551;28;20048;-88
2023/03/09 06:43:45;;;;;;;4.40;0.60;;;;;;;16.99;58.93;93221.38;5059037;28;20032;-88
2023/03/09 06:46:10;;;;;;;1.63;0.65;;;;;;;17.57;58.27;93238.78;5059034;28;20066;-88
2023/03/09 06:48:36;;;;;;;6.47;0.93;;;;;;;16.90;59.52;93233.94;5075269;28;20064;-88
2023/03/09 06:51:02;;;;;;;1.95;0.60;;;;;;;17.46;58.07;93227.94;5059047;28;20033;-89
2023/03/09 06:53:27;;;;;;;0.93;0.60;;;;;;;17.83;56.52;93236.75;5075514;28;20028;-89
2023/03/09 06:55:53;;;;;;;3.05;0.75;;;;;;;17.21;55.23;93228.03;5075396;28;20031;-89
2023/03/09 06:58:18;;;;;;;4.28;0.95;;;;;;;17.89;54.96;93244.13;5058698;28;20028;-88
2023/03/09 07:00:46;;;;;;;3.47;0.60;;;;;;;18.64;53.81;93254.19;5058847;28;20028;-89
2023/03/09 07:03:17;;;;;;;5.82;0.90;;;;;;;18.34;53.57;93255.44;5075184;28;20082;-89
2023/03/09 07:05:43;;;;;;;3.15;0.68;;;;;;;18.53;52.36;93274.44;5059025;28;20430;-89
2023/03/09 07:08:09;;;;;;;2.92;0.80;;;;;;;18.75;52.03;93263.16;5075169;28;20033;-89
2023/03/09 07:10:34;;;;;;;2.53;0.80;;;;;;;19.45;49.92;93278.63;5075176;28;20039;-86
2023/03/09 07:13:00;;;;;;;2.28;0.80;;;;;;;19.66;49.06;93272.19;5075215;28;20039;-88
2023/03/09 07:15:25;;;;;;;3.45;0.90;;;;;;;19.48;49.38;93267.31;5075250;28;20098;-87
2023/03/09 07:17:51;;;;;;;2.15;0.95;;;;;;;19.69;49.17;93274.91;5075220;28;20064;-87
2023/03/09 07:20:16;;;;;;;7.25;1.50;;;;;;;19.28;49.94;93269.19;5075045;28;20032;-89
2023/03/09 07:22:41;;;;;;;2.85;0.88;;;;;;;19.64;50.22;93270.63;5066493;28;20056;-87
2023/03/09 07:25:07;;;;;;;2.03;1.02;;;;;;;18.46;52.17;93275.78;5040100;28;20033;-89
2023/03/09 07:27:33;;;;;;;5.05;0.90;;;;;;;18.59;51.60;93268.50;5058783;28;20497;-92
2023/03/09 07:29:58;;;;;;;3.90;1.10;;;;;;;19.31;50.21;93271.16;5042278;28;20029;-91
2023/03/09 07:32:24;;;;;;;2.80;0.80;;;;;;;19.52;49.54;93278.00;5042038;28;20509;-92
2023/03/09 07:34:50;;;;;;;5.72;1.13;;;;;;;18.35;52.22;93275.53;5041991;28;20035;-90
2023/03/09 07:37:16;;;;;;;5.93;1.20;;;;;;;18.88;51.35;93265.72;5042007;28;20021;-91
2023/03/09 07:39:41;;;;;;;4.97;1.00;;;;;;;18.98;50.34;93281.09;5041846;28;20450;-92
2023/03/09 07:42:07;;;;;;;4.97;1.17;;;;;;;19.10;50.60;93276.81;5041897;28;20518;-91
2023/03/09 07:44:33;;;;;;;11.00;1.10;;;;;;;19.00;50.48;93278.88;5059718;28;20342;-92
2023/03/09 07:46:58;;;;;;;4.53;0.80;;;;;;;19.25;49.09;93275.19;5041708;28;20044;-92
2023/03/09 07:49:24;;;;;;;4.82;1.00;;;;;;;20.03;47.80;93269.06;5041487;28;20067;-88
2023/03/09 07:51:49;;;;;;;4.53;0.98;;;;;;;19.55;48.11;93272.75;5042005;28;20115;-91
2023/03/09 07:54:15;;;;;;;6.15;1.00;;;;;;;20.24;47.03;93281.19;5058145;28;20032;-90
2023/03/09 07:56:43;;;;;;;2.60;0.88;;;;;;;21.65;44.90;93274.34;5041606;28;20020;-92
2023/03/09 07:59:14;;;;;;;3.08;0.82;;;;;;;21.00;45.11;93280.44;5057823;28;20025;-89
2023/03/09 08:01:39;;;;;;;3.80;1.02;;;;;;;21.77;43.75;93268.78;5041291;28;20035;-89
2023/03/09 08:04:04;;;;;;;4.43;0.90;;;;;;;22.03;43.80;93283.91;5058250;28;20431;-89
2023/03/09 08:06:30;;;;;;;3.10;0.75;;;;;;;22.13;44.78;93287.81;5059249;28;20035;-90
2023/03/09 08:08:55;;;;;;;4.45;0.73;;;;;;;22.59;42.05;93285.91;5057681;28;20507;-89
2023/03/09 08:11:23;;;;;;;6.57;1.10;;;;;;;22.58;41.65;93285.13;5058019;28;20074;-88
2023/03/09 08:13:48;;;;;;;6.45;0.90;;;;;;;21.68;42.03;93289.66;5042198;28;20021;-89
2023/03/09 08:16:14;;;;;;;3.00;1.00;;;;;;;21.82;42.88;93283.69;5041553;28;20099;-90
2023/03/09 08:18:43;;;;;;;2.78;0.95;;;;;;;20.72;43.21;93291.41;5057535;28;20052;-90
2023/03/09 08:21:11;;;;;;;2.78;0.82;;;;;;;21.59;42.79;93281.88;5041280;28;20033;-90
2023/03/09 08:23:39;;;;;;;1.70;0.60;;;;;;;21.01;43.92;93297.16;5057599;28;20029;-92
2023/03/09 08:26:06;;;;;;;3.88;0.90;;;;;;;21.87;41.88;93284.13;5057459;28;20083;-91
2023/03/09 08:28:32;;;;;;;3.33;0.70;;;;;;;21.05;43.24;93288.09;5041155;28;20606;-91
2023/03/09 08:30:57;;;;;;;1.83;0.75;;;;;;;20.22;44.18;93281.53;5057476;28;20032;-92
2023/03/09 08:33:23;;;;;;;2.85;0.60;;;;;;;20.32;44.51;93290.81;5057353;28;20119;-93
2023/03/09 08:35:48;;;;;;;3.92;0.98;;;;;;;20.52;44.53;93280.88;5040263;28;20025;-89
2023/03/09 08:38:14;;;;;;;4.95;0.80;;;;;;;20.82;45.59;93290.06;5057022;28;20343;-89
2023/03/09 08:40:39;;;;;;;2.08;0.80;;;;;;;21.52;42.79;93282.59;5041024;28;20020;-88
2023/03/09 08:43:05;;;;;;;3.05;0.70;;;;;;;20.53;44.37;93294.94;5057422;28;20052;-91
2023/03/09 08:45:30;;;;;;;7.03;0.80;;;;;;;20.23;43.91;93293.72;5057101;28;20028;-88
2023/03/09 08:47:56;;;;;;;2.13;0.70;;;;;;;20.55;43.80;93280.16;5057239;28;20480;-90
2023/03/09 08:50:21;;;;;;;2.30;0.60;;;;;;;21.40;41.87;93296.16;5056930;28;20025;-88
2023/03/09 08:52:47;;;;;;;2.80;0.93;;;;;;;21.48;41.50;93273.78;5040999;28;20300;-90
2023/03/09 08:55:12;;;;;;;6.07;1.00;;;;;;;21.80;40.62;93281.38;5040570;28;20028;-88
2023/03/09 08:57:38;;;;;;;4.35;1.23;;;;;;;20.43;41.24;93283.78;5040748;28;20112;-89
2023/03/09 09:00:06;;;;;;;3.50;0.75;;;;;;;22.13;37.99;93298.47;5057022;28;20035;-88
2023/03/09 09:02:32;;;;;;;7.78;1.15;;;;;;;20.31;37.66;93290.06;5040755;28;20021;-89
2023/03/09 09:04:57;;;;;;;2.95;0.70;;;;;;;21.24;37.58;93299.78;5057037;28;20031;-90
2023/03/09 09:07:24;;;;;;;1.65;0.50;;;;;;;20.56;38.93;93286.25;5040274;28;20434;-89
2023/03/09 09:09:49;;;;;;;6.63;1.05;;;;;;;22.11;38.83;93314.09;5058056;28;20021;-89
2023/03/09 09:12:16;;;;;;;1.83;0.70;;;;;;;21.60;36.71;93320.75;5041100;28;20053;-89
2023/03/09 09:14:42;;;;;;;1.73;0.60;;;;;;;21.46;37.10;93318.66;5056905;28;20039;-89
2023/03/09 09:17:08;;;;;;;3.95;0.88;;;;;;;21.11;36.46;93327.75;5057951;28;20059;-90
2023/03/09 09:19:40;;;;;;;6.45;0.77;;;;;;;21.10;37.26;93321.66;5056392;28;20039;-90
2023/03/09 09:22:08;;;;;;;4.40;1.17;;;;;;;20.85;37.31;93308.00;5056484;28;20121;-89
2023/03/09 09:24:36;;;;;;;5.93;0.80;;;;;;;21.22;37.55;93296.69;5056674;28;20032;-88
2023/03/09 09:27:05;;;;;;;3.33;0.70;;;;;;;21.77;38.15;93348.75;5056739;28;20468;-89
2023/03/09 09:29:31;;;;;;;4.95;1.00;;;;;;;20.13;38.96;93334.19;5039864;28;20393;-89
2023/03/09 09:31:57;;;;;;;1.90;0.75;;;;;;;21.02;38.54;93341.31;5056463;28;20039;-89
2023/03/09 09:34:23;;;;;;;3.10;0.95;;;;;;;20.08;39.96;93326.50;5056841;28;20415;-89
2023/03/09 09:36:48;;;;;;;3.08;0.98;;;;;;;20.34;39.96;93323.91;5040081;28;20033;-90
2023/03/09 09:39:14;;;;;;;4.13;1.10;;;;;;;20.85;39.41;93332.69;5056626;28;20060;-93
2023/03/09 09:41:43;;;;;;;3.45;0.65;;;;;;;21.52;39.48;93327.13;5056360;28;20036;-90
2023/03/09 09:44:29;;;;;;;3.42;1.10;;;;;;;21.19;39.32;93335.47;5039978;28;20033;-91
2023/03/09 09:46:56;;;;;;;6.80;0.80;;;;;;;20.32;40.49;93320.06;5056286;28;20384;-91
2023/03/09 09:49:27;;;;;;;4.00;0.90;;;;;;;21.96;38.03;93331.06;5039320;28;20067;-91
2023/03/09 09:52:02;;;;;;;5.30;1.00;;;;;;;21.27;38.37;93339.00;5039595;28;20090;-89
2023/03/09 09:54:36;;;;;;;2.85;0.82;;;;;;;21.38;39.01;93341.03;5056205;28;20053;-90
2023/03/09 09:57:05;;;;;;;6.68;0.70;;;;;;;22.94;38.13;93343.34;5056017;28;20423;-91
2023/03/09 09:59:42;;;;;;;4.03;0.73;;;;;;;22.17;38.65;93347.28;5055744;28;20132;-90
2023/03/09 10:02:07;;;;;;;1.42;0.65;;;;;;;21.33;37.82;93342.88;5039341;28;20453;-90
2023/03/09 10:04:40;;;;;;;5.22;0.95;;;;;;;21.35;38.68;93321.22;5056823;28;20029;-92
2023/03/09 10:07:15;;;;;;;3.83;1.00;;;;;;;21.55;38.38;93350.38;5056745;28;20029;-91
2023/03/09 10:09:43;;;;;;;8.55;1.00;;;;;;;20.76;39.63;93335.59;5055535;28;20060;-91
2023/03/09 10:12:13;;;;;;;6.93;1.20;;;;;;;21.95;38.63;93345.50;5039113;28;20466;-89
2023/03/09 10:14:43;;;;;;;7.20;1.00;;;;;;;21.50;38.54;93343.47;5055542;28;20115;-86
2023/03/09 10:17:18;;;;;;;6.07;1.10;;;;;;;21.05;38.73;93367.97;5056708;28;20060;-89
2023/03/09 10:19:45;;;;;;;6.40;1.20;;;;;;;21.39;38.87;93345.25;5056854;28;20059;-88
2023/03/09 10:22:16;;;;;;;6.35;0.95;;;;;;;21.78;38.18;93360.94;5055659;28;20028;-87
2023/03/09 10:24:43;;;;;;;8.00;1.50;;;;;;;20.73;39.61;93344.28;5055769;28;20033;-86
2023/03/09 10:27:31;;;;;;;4.90;1.25;;;;;;;21.91;38.62;93350.06;5055326;28;20032;-89
2023/03/09 10:30:07;;;;;;;7.03;1.50;;;;;;;21.78;38.34;93355.63;5056480;28;20102;-87
2023/03/09 10:32:35;;;;;;;6.45;1.30;;;;;;;21.01;39.27;93347.75;5056460;28;20128;-89
2023/03/09 10:35:25;;;;;;;1.23;0.77;;;;;;;22.06;36.60;93353.66;5056424;28;20032;-89
2023/03/09 10:37:51;;;;;;;2.85;0.88;;;;;;;21.28;37.80;93367.16;5056495;28;20037;-87
2023/03/09 10:40:23;;;;;;;3.90;1.00;;;;;;;21.12;37.18;93350.59;5055188;28;20036;-86
2023/03/09 10:42:48;;;;;;;5.45;0.77;;;;;;;21.96;36.21;93350.50;5055198;28;20032;-86
2023/03/09 10:45:19;;;;;;;5.45;1.35;;;;;;;21.31;37.68;93363.78;5069272;28;20029;-87
2023/03/09 10:48:05;;;;;;;3.97;1.13;;;;;;;22.34;36.47;93360.41;5065554;28;20036;-89
2023/03/09 10:50:35;;;;;;;5.63;1.20;;;;;;;21.80;37.43;93357.94;5055988;28;20335;-88
2023/03/09 10:53:19;;;;;;;4.20;1.27;;;;;;;22.33;36.83;93351.63;5075521;28;20086;-89
2023/03/09 10:55:47;;;;;;;4.90;1.05;;;;;;;22.54;36.27;93355.66;5076392;28;20060;-89
2023/03/09 10:58:21;;;;;;;4.57;0.90;;;;;;;22.53;36.01;93354.88;5075243;28;20410;-89
2023/03/09 11:00:54;;;;;;;6.45;1.20;;;;;;;22.17;37.40;93362.53;5061937;28;20337;-88
2023/03/09 11:03:21;;;;;;;3.95;0.95;;;;;;;22.82;36.25;93362.38;5079208;28;20430;-88
2023/03/09 11:05:47;;;;;;;4.85;1.10;;;;;;;22.07;38.18;93365.84;5079278;28;20067;-89
2023/03/09 11:08:23;;;;;;;5.32;1.05;;;;;;;22.39;36.68;93352.84;5079164;28;20493;-89
2023/03/09 11:11:00;;;;;;;3.53;1.00;;;;;;;22.37;36.81;93363.09;5079329;28;20024;-89
2023/03/09 11:13:25;;;;;;;3.72;1.00;;;;;;;22.46;36.05;93354.81;5079554;28;20036;-88
2023/03/09 11:16:28;;;;;;;4.97;0.90;;;;;;;23.18;36.19;93346.56;5080368;28;20354;-89
2023/03/09 11:19:13;;;;;;;6.70;1.02;;;;;;;23.82;35.92;93349.97;5058295;28;20102;-89
2023/03/09 11:21:51;;;;;;;3.17;0.85;;;;;;;23.81;34.47;93354.53;5062575;28;20493;-89
2023/03/09 11:24:17;;;;;;;3.05;1.02;;;;;;;24.32;34.11;93346.66;5078819;28;20536;-89
2023/03/09 11:26:47;;;;;;;4.00;1.20;;;;;;;22.72;32.50;93342.44;5078957;28;20123;-89
2023/03/09 11:29:16;;;;;;;4.38;0.77;;;;;;;23.58;34.61;93352.94;5079100;28;20091;-89
2023/03/09 11:31:42;;;;;;;5.00;1.13;;;;;;;23.29;34.54;93355.44;5079772;28;20028;-88
2023/03/09 11:34:15;;;;;;;5.00;1.10;;;;;;;22.96;32.50;93343.78;5078791;28;20024;-88
2023/03/09 11:37:08;;;;;;;2.50;0.80;;;;;;;23.19;32.30;93326.72;5079758;28;20345;-88